الصفحة الرئيسية
METAR-TAF:

METAR-TAF

مطار :

نوميا / La Tontouta, نيو كاليدونيا

دائرة عرض: 22-01S, خط طول: 166-13E, ارتفاع: 16 متر

مراقبة الطقس الحالي

تاريخ ووقت الإصدار 25 دقيقة قبل الساعة 09:00UTC
ريح 3 عقدة من الشمال/الشمال الشرقي, الاتجاه يتراوح بين الشمال و الشمال الشرقي
درجة الحرارة 25°درجة مئوية
الرطوبة 65%
ضغط 1014 hPa
الرؤية 10 كم أو أكثر

METAR: NWWW 220900Z AUTO 02003KT 350V050 9999 FEW041/// ///CB 25/18 Q1014 BECMG SCT040 BKN060

زمن: 20:25 (09:25 UTC)

توقعات

تاريخ ووقت الإصدار 4ساعات و 25 دقيقة قبل الساعة 05:00UTC
التوقعات صالحة من22 الساعة 06 UTC إلى 23 الساعة 06 UTC
ريح 10 عقدة من الجنوب
الرؤية 10 كم أو أكثر
غيوم متفرقة على ارتفاع 4000 قدم
غيوم مفككة على ارتفاع 6000 قدم
أصبح
من 22 الساعة 06 UTC إلى 22 الساعة 08 UTC
ريح 2 عقدةمن اتجاهات متغيرة
أصبح
من 23 الساعة 00 UTC إلى 23 الساعة 02 UTC
ريح 10 عقدة من الجنوب/الجنوب الغربي
مؤقت
من 23 الساعة 02 UTC إلى 23 الساعة 06 UTC
غيوم قليلة على ارتفاع 2500 قدم, مزنة ركامية.
زخات من المطر

TAF: NWWW 220500Z 2206/2306 19010KT 9999 SCT040 BKN060 BECMG 2206/2208 VRB02KT BECMG 2300/2302 20010KT TEMPO 2302/2306 SHRA FEW025CB

أرصاد الطقس والتوقعات من أكثر من 4000 مطار (تقارير الطقس للمطار METAR والتنبؤ بالطقس بالمطارTAF).

المحطات المتاحة هي النقط الصفراء والحمراء على الخريطة.

حرك المؤشر فوق النقطة لمعرفة اسم المحطة.

ثم انقر لمعرفة أرصاد وتوقعات الطقس.

لتغيير الخارطة: اضغط على الأزرار الخضراء مع رمز الصليب الأسود للتكبير. على الزر الأخضر مع شرطة للتصغير، أو على الأسهم الخضراء للخرائط المجاورة.


METAR-TAF: